Terminal Aerodrome Forecast
Issued by NWS Bismarck, ND

Home | Current Version | Previous Version | Graphics & Text | Print | Product List | Glossary On
Versions: 1 2 3 4 5 6 7 8 9 10 11 12 13 14 15 16 17
000
FTUS43 KBIS 171726
TAFBIS
TAF
KBIS 171726Z 1718/1818 25009KT P6SM SKC
     FM172000 24013G22KT P6SM SKC
     FM180000 19006KT P6SM SKC
     FM180800 28007KT P6SM FEW150 FEW250 WS020/30045KT
     FM181200 30014G22KT P6SM SCT250
     FM181500 30018G28KT P6SM SCT250=

USA.gov is the U.S. government's official web portal to all federal, state and local government web resources and services.